createdAt,value
2019-05-21T00:01:38.443Z,13.50
2019-05-21T00:04:04.966Z,13.40
2019-05-21T00:06:31.060Z,13.30
2019-05-21T00:08:57.213Z,13.30
2019-05-21T00:11:23.247Z,13.30
2019-05-21T00:13:49.303Z,13.30
2019-05-21T00:16:15.394Z,13.20
2019-05-21T00:18:41.528Z,13.20
2019-05-21T00:21:07.574Z,13.20
2019-05-21T00:23:33.619Z,13.10
2019-05-21T00:25:59.662Z,13.10
2019-05-21T00:28:33.838Z,13.10
2019-05-21T00:31:18.677Z,13.20
2019-05-21T00:34:03.397Z,13.10
2019-05-21T00:36:48.969Z,13.10
2019-05-21T00:39:33.801Z,13.10
2019-05-21T00:42:02.170Z,13.20
2019-05-21T00:44:30.903Z,13.10
2019-05-21T00:46:56.940Z,13.00
2019-05-21T00:49:23.960Z,12.90
2019-05-21T00:51:50.014Z,13.00
2019-05-21T00:54:16.034Z,13.00
2019-05-21T00:56:42.087Z,12.90
2019-05-21T00:59:08.125Z,12.90
2019-05-21T01:01:34.191Z,12.90
2019-05-21T01:04:00.236Z,12.90
2019-05-21T01:06:26.279Z,12.90
2019-05-21T01:08:52.310Z,12.90
2019-05-21T01:11:18.343Z,12.90
2019-05-21T01:13:44.503Z,12.80
2019-05-21T01:16:10.596Z,12.80
2019-05-21T01:18:36.881Z,12.90
2019-05-21T01:21:03.711Z,12.80
2019-05-21T01:23:31.188Z,12.80
2019-05-21T01:25:57.532Z,12.80
2019-05-21T01:28:24.066Z,12.80
2019-05-21T01:30:50.094Z,12.80
2019-05-21T01:33:16.134Z,12.80
2019-05-21T01:35:42.159Z,12.70
2019-05-21T01:38:09.196Z,12.70
2019-05-21T01:40:35.576Z,12.70
2019-05-21T01:43:03.498Z,12.80
2019-05-21T01:45:29.539Z,12.70
2019-05-21T01:47:55.546Z,12.70
2019-05-21T01:50:21.573Z,12.80
2019-05-21T01:52:47.628Z,12.70
2019-05-21T01:55:13.691Z,12.70
2019-05-21T01:57:39.715Z,12.70
2019-05-21T02:00:06.253Z,12.80
2019-05-21T02:02:33.651Z,12.80
2019-05-21T02:05:00.699Z,12.80
2019-05-21T02:07:26.748Z,12.80
2019-05-21T02:09:58.736Z,12.80
2019-05-21T02:12:25.038Z,12.80
2019-05-21T02:14:51.079Z,12.80
2019-05-21T02:17:17.229Z,12.80
2019-05-21T02:19:43.787Z,12.80
2019-05-21T02:22:10.059Z,12.80
2019-05-21T02:24:36.098Z,12.90
2019-05-21T02:27:02.123Z,12.80
2019-05-21T02:29:28.176Z,12.80
2019-05-21T02:31:54.189Z,12.80
2019-05-21T02:34:20.583Z,12.80
2019-05-21T02:36:46.836Z,12.80
2019-05-21T02:39:12.861Z,12.80
2019-05-21T02:41:39.224Z,12.80
2019-05-21T02:44:05.368Z,12.80
2019-05-21T02:46:31.536Z,12.80
2019-05-21T02:48:57.679Z,12.80
2019-05-21T02:51:24.338Z,12.80
2019-05-21T02:53:50.500Z,12.80
2019-05-21T02:56:16.529Z,12.80
2019-05-21T02:58:42.636Z,12.70
2019-05-21T03:01:10.572Z,12.70
2019-05-21T03:03:36.801Z,12.80
2019-05-21T03:06:13.667Z,12.70
2019-05-21T03:08:30.815Z,12.80
2019-05-21T03:10:56.886Z,12.80
2019-05-21T03:16:05.753Z,12.80
2019-05-21T03:18:31.893Z,12.80
2019-05-21T03:20:58.049Z,12.80
2019-05-21T03:23:25.078Z,12.80
2019-05-21T03:25:51.136Z,12.80
2019-05-21T03:28:17.159Z,12.80
2019-05-21T03:30:43.491Z,12.80
2019-05-21T03:33:09.552Z,12.80
2019-05-21T03:35:35.603Z,12.80
2019-05-21T03:38:01.613Z,12.80
2019-05-21T03:40:27.755Z,12.90
2019-05-21T03:42:54.185Z,12.80
2019-05-21T03:45:20.530Z,12.90
2019-05-21T03:47:46.560Z,12.90
2019-05-21T03:50:12.773Z,12.90
2019-05-21T03:52:38.813Z,12.90
2019-05-21T03:55:04.876Z,12.90
2019-05-21T03:57:30.907Z,12.90
2019-05-21T03:59:57.083Z,12.90
2019-05-21T04:02:23.484Z,12.90
2019-05-21T04:04:50.029Z,13.00
2019-05-21T04:07:16.114Z,13.00
2019-05-21T04:09:43.189Z,13.00
2019-05-21T04:12:09.523Z,12.90
2019-05-21T04:14:37.442Z,13.00
2019-05-21T04:17:22.478Z,13.00
2019-05-21T04:19:50.480Z,13.00
2019-05-21T04:22:16.498Z,13.00
2019-05-21T04:24:43.116Z,13.00
2019-05-21T04:27:09.137Z,13.10
2019-05-21T04:29:35.187Z,13.00
2019-05-21T04:32:01.229Z,13.00
2019-05-21T04:34:27.252Z,13.10
2019-05-21T04:37:09.379Z,13.10
2019-05-21T04:39:21.194Z,13.10
2019-05-21T04:41:47.244Z,13.10
2019-05-21T04:44:13.268Z,13.10
2019-05-21T04:46:39.440Z,13.10
2019-05-21T04:49:06.691Z,13.00
2019-05-21T04:51:33.179Z,13.00
2019-05-21T04:53:59.195Z,13.00
2019-05-21T04:56:25.218Z,13.00
2019-05-21T04:58:51.250Z,13.00
2019-05-21T05:01:17.274Z,13.00
2019-05-21T05:03:43.295Z,13.00
2019-05-21T05:06:09.319Z,13.00
2019-05-21T05:08:35.472Z,13.00
2019-05-21T05:11:01.490Z,13.00
2019-05-21T05:13:27.873Z,13.00
2019-05-21T05:15:53.906Z,12.90
2019-05-21T05:18:20.048Z,13.00
2019-05-21T05:20:46.058Z,13.00
2019-05-21T05:23:12.105Z,13.00
2019-05-21T05:25:38.130Z,13.00
2019-05-21T05:28:04.154Z,12.90
2019-05-21T05:30:30.546Z,12.90
2019-05-21T05:32:56.570Z,12.90
2019-05-21T05:35:22.582Z,12.90
2019-05-21T05:37:49.276Z,13.00
2019-05-21T05:40:16.471Z,12.90
2019-05-21T05:42:43.696Z,13.00
2019-05-21T05:45:09.918Z,13.00
2019-05-21T05:47:36.190Z,13.00
2019-05-21T05:50:05.682Z,13.00
2019-05-21T05:52:31.736Z,13.00
2019-05-21T05:54:57.811Z,13.00
2019-05-21T05:57:24.183Z,13.00
2019-05-21T05:59:50.215Z,13.00
2019-05-21T06:02:16.527Z,13.00
2019-05-21T06:04:42.584Z,13.00
2019-05-21T06:07:08.723Z,12.90
2019-05-21T06:09:35.224Z,12.90
2019-05-21T06:12:01.392Z,12.80
2019-05-21T06:14:27.546Z,12.80
2019-05-21T06:16:53.554Z,12.90
2019-05-21T06:19:19.591Z,12.80
2019-05-21T06:21:45.717Z,12.80
2019-05-21T06:24:13.654Z,12.80
2019-05-21T06:26:39.897Z,12.80
2019-05-21T06:29:05.939Z,12.80
2019-05-21T06:31:31.955Z,12.80
2019-05-21T06:33:58.003Z,12.80
2019-05-21T06:36:24.082Z,12.90
2019-05-21T06:38:50.779Z,12.80
2019-05-21T06:41:16.834Z,12.80
2019-05-21T06:43:42.845Z,12.80
2019-05-21T06:46:08.873Z,12.80
2019-05-21T06:48:34.906Z,12.80
2019-05-21T06:51:01.221Z,12.90
2019-05-21T06:53:27.247Z,12.90
2019-05-21T06:55:53.261Z,13.00
2019-05-21T06:58:19.407Z,13.00
2019-05-21T07:00:45.541Z,12.90
2019-05-21T07:03:12.653Z,13.00
2019-05-21T07:05:56.057Z,12.90
2019-05-21T07:08:07.695Z,13.00
2019-05-21T07:12:49.903Z,13.00
2019-05-21T07:15:16.319Z,13.10
2019-05-21T07:17:42.356Z,13.10
2019-05-21T07:20:08.784Z,13.10
2019-05-21T07:22:34.823Z,13.10
2019-05-21T07:25:00.985Z,13.10
2019-05-21T07:30:09.587Z,13.10
2019-05-21T07:32:35.660Z,13.10
2019-05-21T07:35:02.027Z,13.10
2019-05-21T07:37:29.264Z,13.20
2019-05-21T07:39:55.627Z,13.20
2019-05-21T07:42:21.658Z,13.20
2019-05-21T07:44:47.744Z,13.20
2019-05-21T07:47:13.877Z,13.10
2019-05-21T07:49:39.942Z,13.20
2019-05-21T07:52:05.975Z,13.10
2019-05-21T07:54:31.998Z,13.00
2019-05-21T07:56:58.049Z,13.00
2019-05-21T07:59:24.070Z,13.00
2019-05-21T08:01:50.130Z,13.00
2019-05-21T08:04:16.366Z,13.10
2019-05-21T08:06:42.463Z,13.20
2019-05-21T08:09:14.496Z,13.10
2019-05-21T08:11:36.487Z,13.20
2019-05-21T08:14:03.135Z,13.20
2019-05-21T08:16:29.164Z,13.30
2019-05-21T08:18:56.295Z,13.30
2019-05-21T08:21:22.325Z,13.10
2019-05-21T08:23:48.377Z,13.20
2019-05-21T08:26:14.391Z,13.40
2019-05-21T08:28:40.431Z,13.30
2019-05-21T08:31:06.434Z,13.30
2019-05-21T08:33:32.475Z,13.20
2019-05-21T08:35:58.472Z,13.30
2019-05-21T08:38:24.506Z,13.20
2019-05-21T08:40:50.538Z,13.20
2019-05-21T08:43:17.575Z,13.20
2019-05-21T08:45:43.691Z,13.20
2019-05-21T08:48:09.771Z,13.10
2019-05-21T08:50:35.894Z,13.10
2019-05-21T08:53:01.936Z,13.00
2019-05-21T08:55:27.953Z,13.00
2019-05-21T08:58:06.612Z,13.10
2019-05-21T09:00:22.271Z,13.10
2019-05-21T09:02:48.529Z,13.10
2019-05-21T09:05:19.037Z,13.20
2019-05-21T09:07:45.233Z,13.10
2019-05-21T09:10:11.795Z,13.10
2019-05-21T09:12:37.803Z,13.10
2019-05-21T09:15:04.743Z,13.10
2019-05-21T09:17:30.847Z,13.10
2019-05-21T09:19:56.875Z,13.20
2019-05-21T09:22:23.174Z,13.20
2019-05-21T09:24:50.371Z,13.10
2019-05-21T09:27:16.485Z,13.10
2019-05-21T09:29:42.577Z,13.10
2019-05-21T09:32:08.589Z,13.10
2019-05-21T09:34:48.096Z,13.10
2019-05-21T09:37:18.180Z,13.10
2019-05-21T09:39:30.886Z,13.10
2019-05-21T09:41:56.900Z,13.00
2019-05-21T09:44:23.960Z,13.00
2019-05-21T09:46:50.287Z,13.10
2019-05-21T09:49:17.441Z,13.10
2019-05-21T09:51:43.550Z,13.10
2019-05-21T09:54:09.583Z,13.20
2019-05-21T09:56:36.287Z,13.10
2019-05-21T09:59:25.001Z,13.10
2019-05-21T10:01:56.915Z,13.10
2019-05-21T10:04:22.987Z,13.10
2019-05-21T10:06:49.135Z,13.20
2019-05-21T10:09:17.087Z,13.20
2019-05-21T10:11:43.106Z,13.20
2019-05-21T10:14:09.376Z,13.20
2019-05-21T10:16:35.401Z,13.10
2019-05-21T10:19:01.491Z,13.10
2019-05-21T10:21:28.564Z,13.10
2019-05-21T10:23:54.609Z,13.10
2019-05-21T10:26:20.683Z,13.20
2019-05-21T10:28:46.696Z,13.20
2019-05-21T10:31:12.981Z,13.30
2019-05-21T10:33:39.049Z,13.20
2019-05-21T10:36:05.348Z,13.20
2019-05-21T10:38:31.387Z,13.20
2019-05-21T10:40:57.413Z,13.30
2019-05-21T10:43:25.547Z,13.30
2019-05-21T10:45:51.567Z,13.40
2019-05-21T10:48:17.592Z,13.40
2019-05-21T10:50:43.653Z,13.40
2019-05-21T10:53:09.867Z,13.50
2019-05-21T10:55:37.013Z,13.50
2019-05-21T10:58:03.324Z,13.50
2019-05-21T11:00:29.967Z,13.50
2019-05-21T11:03:14.705Z,13.50
2019-05-21T11:05:42.652Z,13.60
2019-05-21T11:08:25.254Z,13.60
2019-05-21T11:10:36.623Z,13.50
2019-05-21T11:13:02.847Z,13.40
2019-05-21T11:15:28.877Z,13.60
2019-05-21T11:18:09.699Z,13.60
2019-05-21T11:20:22.826Z,13.50
2019-05-21T11:22:48.845Z,13.50
2019-05-21T11:25:15.191Z,13.60
2019-05-21T11:27:41.232Z,13.60
2019-05-21T11:30:07.468Z,13.70
2019-05-21T11:32:33.795Z,13.70
2019-05-21T11:34:59.830Z,13.70
2019-05-21T11:37:26.857Z,13.70
2019-05-21T11:39:53.170Z,13.70
2019-05-21T11:42:19.328Z,13.70
2019-05-21T11:44:45.347Z,13.80
2019-05-21T11:47:11.382Z,13.70
2019-05-21T11:49:38.400Z,13.80
2019-05-21T11:52:04.538Z,13.80
2019-05-21T11:54:30.631Z,13.80
2019-05-21T11:56:56.779Z,14.00
2019-05-21T11:59:22.814Z,13.80
2019-05-21T12:01:49.170Z,13.80
2019-05-21T12:04:15.559Z,13.90
2019-05-21T12:06:41.591Z,13.80
2019-05-21T12:09:07.624Z,13.80
2019-05-21T12:11:33.639Z,13.90
2019-05-21T12:13:59.665Z,13.90
2019-05-21T12:16:25.697Z,13.90
2019-05-21T12:18:51.774Z,13.90
2019-05-21T12:21:17.819Z,13.90
2019-05-21T12:23:44.008Z,13.80
2019-05-21T12:26:10.311Z,13.80
2019-05-21T12:28:36.407Z,13.80
2019-05-21T12:31:03.527Z,13.70
2019-05-21T12:33:29.742Z,13.80
2019-05-21T12:35:56.121Z,13.70
2019-05-21T12:38:22.458Z,13.90
2019-05-21T12:40:48.555Z,13.80
2019-05-21T12:43:14.599Z,13.80
2019-05-21T12:45:40.638Z,13.80
2019-05-21T12:48:06.673Z,13.80
2019-05-21T12:50:32.686Z,13.70
2019-05-21T12:52:58.715Z,13.80
2019-05-21T12:55:24.754Z,13.70
2019-05-21T12:57:50.808Z,13.70
2019-05-21T13:00:17.138Z,13.70
2019-05-21T13:02:43.164Z,13.70
2019-05-21T13:05:11.553Z,13.80
2019-05-21T13:07:37.354Z,13.80
2019-05-21T13:10:04.355Z,13.90
2019-05-21T13:12:30.396Z,13.80
2019-05-21T13:14:56.532Z,13.90
2019-05-21T13:17:22.638Z,13.90
2019-05-21T13:19:48.680Z,13.90
2019-05-21T13:22:14.803Z,13.90
2019-05-21T13:24:40.826Z,14.00
2019-05-21T13:27:07.328Z,13.90
2019-05-21T13:29:33.680Z,13.80
2019-05-21T13:31:59.816Z,13.90
2019-05-21T13:34:25.832Z,14.00
2019-05-21T13:36:51.976Z,13.90
2019-05-21T13:39:18.015Z,13.90
2019-05-21T13:41:44.057Z,14.00
2019-05-21T13:44:10.122Z,13.90
2019-05-21T13:46:36.354Z,13.90
2019-05-21T13:49:02.899Z,13.90
2019-05-21T13:51:28.918Z,13.90
2019-05-21T13:53:54.944Z,14.00
2019-05-21T13:56:20.972Z,14.00
2019-05-21T13:58:48.207Z,14.00
2019-05-21T14:01:16.027Z,14.00
2019-05-21T14:03:42.364Z,14.00
2019-05-21T14:06:08.594Z,14.00
2019-05-21T14:08:35.384Z,14.00
2019-05-21T14:11:01.509Z,13.90
2019-05-21T14:13:27.630Z,14.10
2019-05-21T14:15:53.691Z,14.00
2019-05-21T14:18:19.823Z,14.00
2019-05-21T14:20:45.858Z,14.00
2019-05-21T14:23:12.132Z,14.00
2019-05-21T14:25:38.277Z,14.00
2019-05-21T14:28:04.707Z,14.00
2019-05-21T14:30:30.796Z,14.00
2019-05-21T14:32:56.832Z,13.90
2019-05-21T14:35:22.859Z,14.00
2019-05-21T14:37:50.352Z,14.00
2019-05-21T14:40:31.300Z,13.90
2019-05-21T14:42:58.383Z,14.00
2019-05-21T14:45:13.524Z,14.00
2019-05-21T14:47:39.570Z,14.00
2019-05-21T14:50:06.668Z,14.00
2019-05-21T14:52:32.828Z,13.90
2019-05-21T14:54:58.843Z,14.10
2019-05-21T14:57:24.870Z,14.00
2019-05-21T14:59:50.898Z,13.90
2019-05-21T15:02:17.959Z,14.00
2019-05-21T15:04:44.299Z,14.00
2019-05-21T15:07:10.936Z,14.00
2019-05-21T15:09:36.955Z,14.00
2019-05-21T15:12:03.359Z,14.00
2019-05-21T15:14:29.431Z,13.90
2019-05-21T15:16:55.512Z,13.90
2019-05-21T15:19:21.761Z,13.90
2019-05-21T15:21:49.703Z,13.90
2019-05-21T15:24:17.039Z,13.90
2019-05-21T15:26:43.390Z,13.80
2019-05-21T15:29:09.677Z,13.80
2019-05-21T15:31:36.166Z,13.90
2019-05-21T15:34:02.195Z,13.90
2019-05-21T15:36:29.337Z,13.80
2019-05-21T15:38:55.377Z,13.80
2019-05-21T15:41:21.619Z,13.80
2019-05-21T15:43:47.655Z,13.70
2019-05-21T15:46:13.703Z,13.80
2019-05-21T15:48:39.742Z,13.80
2019-05-21T15:51:05.771Z,13.80
2019-05-21T15:53:31.898Z,13.80
2019-05-21T15:55:57.922Z,13.90
2019-05-21T15:58:26.774Z,13.90
2019-05-21T16:00:52.224Z,13.90
2019-05-21T16:03:18.263Z,13.80
2019-05-21T16:05:44.296Z,13.70
2019-05-21T16:08:10.361Z,13.70
2019-05-21T16:10:36.403Z,13.70
2019-05-21T16:13:02.554Z,13.60
2019-05-21T16:15:28.669Z,13.50
2019-05-21T16:17:54.683Z,13.60
2019-05-21T16:20:20.694Z,13.50
2019-05-21T16:22:46.743Z,13.50
2019-05-21T16:25:12.785Z,13.50
2019-05-21T16:27:38.897Z,13.50
2019-05-21T16:30:05.620Z,13.50
2019-05-21T16:32:31.639Z,13.40
2019-05-21T16:34:57.727Z,13.40
2019-05-21T16:37:23.911Z,13.50
2019-05-21T16:39:50.379Z,13.50
2019-05-21T16:42:16.400Z,13.50
2019-05-21T16:44:43.659Z,13.40
2019-05-21T16:47:09.808Z,13.40
2019-05-21T16:49:35.848Z,13.40
2019-05-21T16:52:01.877Z,13.40
2019-05-21T16:54:27.944Z,13.50
2019-05-21T16:56:53.978Z,13.50
2019-05-21T16:59:20.227Z,13.50
2019-05-21T17:01:46.252Z,13.50
2019-05-21T17:04:12.381Z,13.40
2019-05-21T17:06:38.410Z,13.50
2019-05-21T17:09:06.354Z,13.40
2019-05-21T17:11:32.574Z,13.40
2019-05-21T17:13:58.647Z,13.50
2019-05-21T17:16:24.698Z,13.60
2019-05-21T17:18:51.078Z,13.50
2019-05-21T17:21:17.158Z,13.50
2019-05-21T17:23:43.413Z,13.40
2019-05-21T17:26:09.448Z,13.40
2019-05-21T17:28:35.467Z,13.30
2019-05-21T17:31:01.792Z,13.40
2019-05-21T17:33:27.924Z,13.30
2019-05-21T17:35:54.054Z,13.40
2019-05-21T17:38:20.518Z,13.30
2019-05-21T17:40:46.562Z,13.40
2019-05-21T17:43:12.563Z,13.40
2019-05-21T17:45:38.591Z,13.30
2019-05-21T17:48:04.841Z,13.30
2019-05-21T17:50:31.033Z,13.30
2019-05-21T17:52:57.135Z,13.40
2019-05-21T17:55:23.726Z,13.40
2019-05-21T17:57:49.964Z,13.30
2019-05-21T18:00:18.688Z,13.30
2019-05-21T18:02:45.304Z,13.40
2019-05-21T18:05:13.825Z,13.30
2019-05-21T18:07:41.148Z,13.30
2019-05-21T18:10:09.107Z,13.30
2019-05-21T18:12:36.342Z,13.30
2019-05-21T18:15:04.296Z,13.20
2019-05-21T18:17:33.620Z,13.30
2019-05-21T18:20:01.182Z,13.20
2019-05-21T18:22:29.210Z,13.10
2019-05-21T18:24:55.300Z,13.20
2019-05-21T18:27:21.515Z,13.10
2019-05-21T18:29:47.545Z,13.20
2019-05-21T18:32:13.579Z,13.10
2019-05-21T18:34:39.620Z,13.20
2019-05-21T18:37:05.696Z,13.20
2019-05-21T18:39:32.832Z,13.10
2019-05-21T18:41:58.971Z,13.10
2019-05-21T18:44:24.992Z,13.10
2019-05-21T18:46:51.023Z,13.10
2019-05-21T18:49:18.257Z,13.00
2019-05-21T18:51:44.340Z,13.00
2019-05-21T18:54:10.373Z,13.00
2019-05-21T18:56:36.512Z,13.00
2019-05-21T18:59:02.765Z,13.00
2019-05-21T19:01:29.088Z,13.10
2019-05-21T19:03:55.262Z,13.00
2019-05-21T19:06:21.295Z,12.90
2019-05-21T19:08:47.615Z,13.00
2019-05-21T19:11:13.951Z,12.90
2019-05-21T19:13:39.960Z,12.90
2019-05-21T19:16:06.391Z,12.90
2019-05-21T19:18:32.427Z,13.00
2019-05-21T19:20:58.488Z,13.00
2019-05-21T19:23:25.093Z,12.90
2019-05-21T19:25:51.114Z,12.90
2019-05-21T19:28:17.339Z,12.90
2019-05-21T19:30:43.372Z,12.90
2019-05-21T19:33:09.690Z,12.90
2019-05-21T19:35:35.739Z,12.90
2019-05-21T19:38:01.863Z,12.80
2019-05-21T19:40:27.874Z,12.80
2019-05-21T19:42:55.590Z,12.70
2019-05-21T19:45:22.247Z,12.60
2019-05-21T19:47:48.284Z,12.60
2019-05-21T19:50:14.311Z,12.50
2019-05-21T19:52:40.342Z,12.60
2019-05-21T19:55:06.662Z,12.50
2019-05-21T19:57:33.494Z,12.30
2019-05-21T19:59:59.516Z,12.30
2019-05-21T20:02:25.550Z,12.30
2019-05-21T20:04:51.866Z,12.30
2019-05-21T20:07:18.587Z,12.30
2019-05-21T20:09:45.615Z,12.30
2019-05-21T20:12:11.946Z,12.30
2019-05-21T20:14:38.459Z,12.30
2019-05-21T20:17:04.541Z,12.30
2019-05-21T20:19:32.329Z,12.40
2019-05-21T20:21:58.420Z,12.30
2019-05-21T20:24:25.184Z,12.30
2019-05-21T20:26:51.316Z,12.30
2019-05-21T20:29:17.574Z,12.30
2019-05-21T20:31:43.807Z,12.30
2019-05-21T20:34:11.297Z,12.30
2019-05-21T20:36:40.755Z,12.30
2019-05-21T20:39:09.535Z,12.30
2019-05-21T20:41:38.654Z,12.30
2019-05-21T20:44:07.182Z,12.30
2019-05-21T20:46:33.437Z,12.30
2019-05-21T20:49:00.071Z,12.30
2019-05-21T20:51:26.315Z,12.30
2019-05-21T20:53:53.326Z,12.30
2019-05-21T20:56:21.707Z,12.30
2019-05-21T20:58:47.731Z,12.30
2019-05-21T21:01:13.750Z,12.30
2019-05-21T21:03:40.478Z,12.30
2019-05-21T21:06:07.526Z,12.30
2019-05-21T21:08:35.804Z,12.30
2019-05-21T21:11:02.832Z,12.30
2019-05-21T21:13:28.876Z,12.30
2019-05-21T21:15:55.427Z,12.20
2019-05-21T21:18:22.419Z,12.20
2019-05-21T21:20:48.773Z,12.20
2019-05-21T21:23:16.897Z,12.20
2019-05-21T21:25:43.024Z,12.20
2019-05-21T21:28:09.171Z,12.10
2019-05-21T21:30:37.949Z,12.10
2019-05-21T21:33:04.924Z,12.10
2019-05-21T21:35:32.113Z,12.10
2019-05-21T21:38:00.039Z,12.10
2019-05-21T21:40:26.259Z,12.10
2019-05-21T21:42:52.603Z,12.10
2019-05-21T21:45:19.184Z,12.10
2019-05-21T21:47:46.750Z,12.10
2019-05-21T21:50:14.812Z,12.10
2019-05-21T21:52:41.553Z,12.10
2019-05-21T21:55:08.275Z,12.20
2019-05-21T21:57:34.293Z,12.10
2019-05-21T22:00:02.269Z,12.10
2019-05-21T22:02:31.878Z,12.10
2019-05-21T22:04:59.803Z,12.00
2019-05-21T22:07:27.031Z,12.00
2019-05-21T22:09:53.548Z,12.00
2019-05-21T22:12:19.914Z,12.00
2019-05-21T22:14:51.217Z,12.10
2019-05-21T22:17:17.089Z,12.10
2019-05-21T22:19:43.106Z,12.00
2019-05-21T22:22:10.123Z,12.10
2019-05-21T22:24:36.472Z,12.10
2019-05-21T22:27:02.668Z,12.00
2019-05-21T22:29:28.739Z,12.00
2019-05-21T22:31:55.761Z,12.00
2019-05-21T22:34:22.189Z,12.00
2019-05-21T22:36:48.520Z,12.10
2019-05-21T22:39:16.556Z,12.10
2019-05-21T22:41:42.688Z,12.00
2019-05-21T22:44:08.823Z,12.00
2019-05-21T22:46:36.019Z,12.00
2019-05-21T22:49:02.039Z,12.00
2019-05-21T22:51:28.255Z,12.00
2019-05-21T22:53:54.268Z,11.90
2019-05-21T22:56:20.327Z,11.90
2019-05-21T22:58:46.345Z,11.90
2019-05-21T23:01:13.759Z,11.90
2019-05-21T23:03:40.100Z,12.00
2019-05-21T23:06:06.153Z,11.90
2019-05-21T23:08:33.379Z,12.00
2019-05-21T23:10:59.417Z,11.90
2019-05-21T23:13:25.435Z,11.90
2019-05-21T23:15:52.799Z,11.90
2019-05-21T23:18:20.887Z,11.90
2019-05-21T23:21:07.355Z,11.90
2019-05-21T23:23:34.994Z,11.90
2019-05-21T23:26:01.738Z,11.90
2019-05-21T23:28:28.642Z,11.90
2019-05-21T23:30:54.901Z,11.80
2019-05-21T23:33:22.012Z,11.80
2019-05-21T23:35:48.452Z,11.90
2019-05-21T23:38:15.767Z,11.90
2019-05-21T23:40:42.053Z,11.90
2019-05-21T23:43:09.291Z,11.80
2019-05-21T23:45:35.568Z,11.80
2019-05-21T23:48:01.795Z,11.90
2019-05-21T23:50:28.032Z,11.80
2019-05-21T23:52:54.339Z,11.90
2019-05-21T23:55:20.378Z,11.90
2019-05-21T23:57:46.435Z,11.90
